sensor_id;sensor_type;location;lat;lon;timestamp;P1;durP1;ratioP1;P2;durP2;ratioP2
57778;SDS011;43608;49.486;9.640;2022-11-25T00:00:05;6.25;;;3.33;;
57778;SDS011;43608;49.486;9.640;2022-11-25T00:00:36;5.70;;;3.60;;
57778;SDS011;43608;49.486;9.640;2022-11-25T00:01:28;5.35;;;3.10;;
57778;SDS011;43608;49.486;9.640;2022-11-25T00:01:58;7.13;;;3.10;;
57778;SDS011;43608;49.486;9.640;2022-11-25T00:02:28;6.25;;;3.30;;
57778;SDS011;43608;49.486;9.640;2022-11-25T00:02:59;6.97;;;3.47;;
57778;SDS011;43608;49.486;9.640;2022-11-25T00:03:29;4.68;;;2.78;;
57778;SDS011;43608;49.486;9.640;2022-11-25T00:03:59;4.80;;;3.08;;
57778;SDS011;43608;49.486;9.640;2022-11-25T00:04:30;4.40;;;3.08;;
57778;SDS011;43608;49.486;9.640;2022-11-25T00:05:05;4.68;;;2.72;;
57778;SDS011;43608;49.486;9.640;2022-11-25T00:05:36;5.72;;;3.15;;
57778;SDS011;43608;49.486;9.640;2022-11-25T00:06:10;5.13;;;3.08;;
57778;SDS011;43608;49.486;9.640;2022-11-25T00:06:42;4.80;;;2.97;;
57778;SDS011;43608;49.486;9.640;2022-11-25T00:07:13;4.30;;;2.90;;
57778;SDS011;43608;49.486;9.640;2022-11-25T00:07:43;4.72;;;2.80;;
57778;SDS011;43608;49.486;9.640;2022-11-25T00:08:14;4.97;;;3.00;;
57778;SDS011;43608;49.486;9.640;2022-11-25T00:08:45;4.43;;;3.08;;
57778;SDS011;43608;49.486;9.640;2022-11-25T00:09:16;4.10;;;2.60;;
57778;SDS011;43608;49.486;9.640;2022-11-25T00:09:46;4.78;;;2.90;;
57778;SDS011;43608;49.486;9.640;2022-11-25T00:10:17;4.93;;;2.83;;
57778;SDS011;43608;49.486;9.640;2022-11-25T00:10:47;5.03;;;2.72;;
57778;SDS011;43608;49.486;9.640;2022-11-25T00:11:17;4.57;;;2.95;;
57778;SDS011;43608;49.486;9.640;2022-11-25T00:11:48;4.72;;;2.97;;
57778;SDS011;43608;49.486;9.640;2022-11-25T00:12:19;4.22;;;2.78;;
57778;SDS011;43608;49.486;9.640;2022-11-25T00:12:49;4.15;;;2.60;;
57778;SDS011;43608;49.486;9.640;2022-11-25T00:13:19;3.88;;;2.65;;
57778;SDS011;43608;49.486;9.640;2022-11-25T00:13:50;4.78;;;2.80;;
57778;SDS011;43608;49.486;9.640;2022-11-25T00:14:20;4.45;;;2.60;;
57778;SDS011;43608;49.486;9.640;2022-11-25T00:14:51;3.78;;;2.50;;
57778;SDS011;43608;49.486;9.640;2022-11-25T00:15:21;4.35;;;2.50;;
57778;SDS011;43608;49.486;9.640;2022-11-25T00:15:51;4.00;;;2.60;;
57778;SDS011;43608;49.486;9.640;2022-11-25T00:16:22;4.53;;;2.80;;
57778;SDS011;43608;49.486;9.640;2022-11-25T00:16:55;3.72;;;2.40;;
57778;SDS011;43608;49.486;9.640;2022-11-25T00:17:25;4.18;;;2.50;;
57778;SDS011;43608;49.486;9.640;2022-11-25T00:17:55;3.58;;;2.30;;
57778;SDS011;43608;49.486;9.640;2022-11-25T00:18:26;5.20;;;2.75;;
57778;SDS011;43608;49.486;9.640;2022-11-25T00:18:56;3.95;;;2.60;;
57778;SDS011;43608;49.486;9.640;2022-11-25T00:19:27;4.65;;;2.50;;
57778;SDS011;43608;49.486;9.640;2022-11-25T00:19:58;5.15;;;2.30;;
57778;SDS011;43608;49.486;9.640;2022-11-25T00:20:30;4.30;;;2.50;;
57778;SDS011;43608;49.486;9.640;2022-11-25T00:21:07;3.35;;;2.22;;
57778;SDS011;43608;49.486;9.640;2022-11-25T00:21:39;5.03;;;2.70;;
57778;SDS011;43608;49.486;9.640;2022-11-25T00:22:09;3.90;;;2.60;;
57778;SDS011;43608;49.486;9.640;2022-11-25T00:22:39;3.72;;;2.50;;
57778;SDS011;43608;49.486;9.640;2022-11-25T00:23:10;2.67;;;1.98;;
57778;SDS011;43608;49.486;9.640;2022-11-25T00:23:40;4.35;;;2.60;;
57778;SDS011;43608;49.486;9.640;2022-11-25T00:24:12;3.20;;;2.38;;
57778;SDS011;43608;49.486;9.640;2022-11-25T00:24:44;5.07;;;2.75;;
57778;SDS011;43608;49.486;9.640;2022-11-25T00:25:14;5.68;;;2.50;;
57778;SDS011;43608;49.486;9.640;2022-11-25T00:25:45;3.85;;;2.35;;
57778;SDS011;43608;49.486;9.640;2022-11-25T00:26:15;5.13;;;2.60;;
57778;SDS011;43608;49.486;9.640;2022-11-25T00:26:46;5.15;;;2.63;;
57778;SDS011;43608;49.486;9.640;2022-11-25T00:27:16;3.58;;;2.55;;
57778;SDS011;43608;49.486;9.640;2022-11-25T00:27:47;4.03;;;2.20;;
57778;SDS011;43608;49.486;9.640;2022-11-25T00:28:20;4.55;;;2.28;;
57778;SDS011;43608;49.486;9.640;2022-11-25T00:28:51;3.95;;;2.50;;
57778;SDS011;43608;49.486;9.640;2022-11-25T00:29:22;3.83;;;2.30;;
57778;SDS011;43608;49.486;9.640;2022-11-25T00:29:52;4.78;;;2.58;;
57778;SDS011;43608;49.486;9.640;2022-11-25T00:30:23;3.58;;;2.25;;
57778;SDS011;43608;49.486;9.640;2022-11-25T00:30:53;4.00;;;2.50;;
57778;SDS011;43608;49.486;9.640;2022-11-25T00:31:25;4.25;;;2.55;;
57778;SDS011;43608;49.486;9.640;2022-11-25T00:31:57;4.13;;;2.60;;
57778;SDS011;43608;49.486;9.640;2022-11-25T00:32:27;4.85;;;2.90;;
57778;SDS011;43608;49.486;9.640;2022-11-25T00:32:57;4.68;;;2.60;;
57778;SDS011;43608;49.486;9.640;2022-11-25T00:33:28;4.72;;;2.70;;
57778;SDS011;43608;49.486;9.640;2022-11-25T00:33:58;5.15;;;2.70;;
57778;SDS011;43608;49.486;9.640;2022-11-25T00:34:29;3.92;;;2.40;;
57778;SDS011;43608;49.486;9.640;2022-11-25T00:34:59;4.22;;;2.42;;
57778;SDS011;43608;49.486;9.640;2022-11-25T00:35:30;3.83;;;2.47;;
57778;SDS011;43608;49.486;9.640;2022-11-25T00:36:00;5.03;;;2.65;;
57778;SDS011;43608;49.486;9.640;2022-11-25T00:36:33;4.00;;;2.60;;
57778;SDS011;43608;49.486;9.640;2022-11-25T00:37:05;4.38;;;2.40;;
57778;SDS011;43608;49.486;9.640;2022-11-25T00:37:35;4.35;;;2.50;;
57778;SDS011;43608;49.486;9.640;2022-11-25T00:38:05;3.63;;;2.38;;
57778;SDS011;43608;49.486;9.640;2022-11-25T00:38:36;3.67;;;2.40;;
57778;SDS011;43608;49.486;9.640;2022-11-25T00:39:08;5.68;;;2.60;;
57778;SDS011;43608;49.486;9.640;2022-11-25T00:39:40;2.95;;;2.28;;
57778;SDS011;43608;49.486;9.640;2022-11-25T00:40:11;4.97;;;2.42;;
57778;SDS011;43608;49.486;9.640;2022-11-25T00:40:41;3.10;;;2.20;;
57778;SDS011;43608;49.486;9.640;2022-11-25T00:41:12;3.17;;;2.25;;
57778;SDS011;43608;49.486;9.640;2022-11-25T00:42:01;3.80;;;2.20;;
57778;SDS011;43608;49.486;9.640;2022-11-25T00:42:50;3.55;;;2.10;;
57778;SDS011;43608;49.486;9.640;2022-11-25T00:43:39;3.55;;;2.10;;
57778;SDS011;43608;49.486;9.640;2022-11-25T00:44:29;3.15;;;2.15;;
57778;SDS011;43608;49.486;9.640;2022-11-25T00:45:05;3.72;;;2.20;;
57778;SDS011;43608;49.486;9.640;2022-11-25T00:45:36;5.03;;;2.30;;
57778;SDS011;43608;49.486;9.640;2022-11-25T00:46:07;4.63;;;2.45;;
57778;SDS011;43608;49.486;9.640;2022-11-25T00:46:37;4.63;;;2.58;;
57778;SDS011;43608;49.486;9.640;2022-11-25T00:47:45;4.90;;;2.50;;
57778;SDS011;43608;49.486;9.640;2022-11-25T00:48:15;2.80;;;2.00;;
57778;SDS011;43608;49.486;9.640;2022-11-25T00:48:45;3.80;;;2.30;;
57778;SDS011;43608;49.486;9.640;2022-11-25T00:49:16;4.15;;;2.30;;
57778;SDS011;43608;49.486;9.640;2022-11-25T00:49:50;3.40;;;2.38;;
57778;SDS011;43608;49.486;9.640;2022-11-25T00:50:22;4.03;;;2.28;;
57778;SDS011;43608;49.486;9.640;2022-11-25T00:50:52;4.45;;;2.20;;
57778;SDS011;43608;49.486;9.640;2022-11-25T00:51:23;3.33;;;2.17;;
57778;SDS011;43608;49.486;9.640;2022-11-25T00:51:53;4.40;;;2.45;;
57778;SDS011;43608;49.486;9.640;2022-11-25T00:52:25;3.67;;;2.17;;
57778;SDS011;43608;49.486;9.640;2022-11-25T00:52:56;3.20;;;2.10;;
57778;SDS011;43608;49.486;9.640;2022-11-25T00:53:26;3.55;;;2.20;;
57778;SDS011;43608;49.486;9.640;2022-11-25T00:53:59;3.63;;;2.20;;
57778;SDS011;43608;49.486;9.640;2022-11-25T00:54:30;4.85;;;2.25;;
57778;SDS011;43608;49.486;9.640;2022-11-25T00:55:00;3.65;;;2.28;;
57778;SDS011;43608;49.486;9.640;2022-11-25T00:55:30;4.05;;;2.30;;
57778;SDS011;43608;49.486;9.640;2022-11-25T00:56:21;4.32;;;2.33;;
57778;SDS011;43608;49.486;9.640;2022-11-25T00:56:52;3.42;;;2.08;;
57778;SDS011;43608;49.486;9.640;2022-11-25T00:57:22;2.95;;;1.95;;
57778;SDS011;43608;49.486;9.640;2022-11-25T00:57:53;4.53;;;2.50;;
57778;SDS011;43608;49.486;9.640;2022-11-25T00:58:23;3.30;;;2.13;;
57778;SDS011;43608;49.486;9.640;2022-11-25T00:58:53;3.78;;;2.40;;
57778;SDS011;43608;49.486;9.640;2022-11-25T00:59:24;3.17;;;2.20;;
57778;SDS011;43608;49.486;9.640;2022-11-25T00:59:54;4.03;;;2.45;;
57778;SDS011;43608;49.486;9.640;2022-11-25T01:00:25;3.97;;;2.30;;
57778;SDS011;43608;49.486;9.640;2022-11-25T01:00:59;3.03;;;2.17;;
57778;SDS011;43608;49.486;9.640;2022-11-25T01:01:30;4.18;;;2.22;;
57778;SDS011;43608;49.486;9.640;2022-11-25T01:02:01;3.80;;;2.15;;
57778;SDS011;43608;49.486;9.640;2022-11-25T01:02:31;2.83;;;2.15;;
57778;SDS011;43608;49.486;9.640;2022-11-25T01:03:01;3.65;;;2.30;;
57778;SDS011;43608;49.486;9.640;2022-11-25T01:03:32;4.15;;;2.33;;
57778;SDS011;43608;49.486;9.640;2022-11-25T01:04:02;5.20;;;2.20;;
57778;SDS011;43608;49.486;9.640;2022-11-25T01:04:33;4.15;;;2.25;;
57778;SDS011;43608;49.486;9.640;2022-11-25T01:05:04;4.10;;;2.22;;
57778;SDS011;43608;49.486;9.640;2022-11-25T01:05:34;3.38;;;2.20;;
57778;SDS011;43608;49.486;9.640;2022-11-25T01:06:08;3.50;;;2.20;;
57778;SDS011;43608;49.486;9.640;2022-11-25T01:06:39;3.60;;;2.10;;
57778;SDS011;43608;49.486;9.640;2022-11-25T01:07:10;3.67;;;2.20;;
57778;SDS011;43608;49.486;9.640;2022-11-25T01:07:40;3.58;;;2.30;;
57778;SDS011;43608;49.486;9.640;2022-11-25T01:08:11;3.53;;;2.20;;
57778;SDS011;43608;49.486;9.640;2022-11-25T01:08:41;3.65;;;2.40;;
57778;SDS011;43608;49.486;9.640;2022-11-25T01:09:12;4.00;;;2.20;;
57778;SDS011;43608;49.486;9.640;2022-11-25T01:09:42;4.35;;;2.50;;
57778;SDS011;43608;49.486;9.640;2022-11-25T01:10:13;4.20;;;2.30;;
57778;SDS011;43608;49.486;9.640;2022-11-25T01:10:43;4.00;;;2.17;;
57778;SDS011;43608;49.486;9.640;2022-11-25T01:11:15;3.28;;;2.20;;
57778;SDS011;43608;49.486;9.640;2022-11-25T01:11:50;3.67;;;2.20;;
57778;SDS011;43608;49.486;9.640;2022-11-25T01:12:21;3.45;;;2.15;;
57778;SDS011;43608;49.486;9.640;2022-11-25T01:12:51;3.28;;;2.28;;
57778;SDS011;43608;49.486;9.640;2022-11-25T01:13:22;4.40;;;2.42;;
57778;SDS011;43608;49.486;9.640;2022-11-25T01:13:52;4.13;;;2.40;;
57778;SDS011;43608;49.486;9.640;2022-11-25T01:14:25;3.60;;;2.30;;
57778;SDS011;43608;49.486;9.640;2022-11-25T01:14:56;3.97;;;2.33;;
57778;SDS011;43608;49.486;9.640;2022-11-25T01:15:26;3.25;;;2.08;;
57778;SDS011;43608;49.486;9.640;2022-11-25T01:15:56;3.83;;;2.35;;
57778;SDS011;43608;49.486;9.640;2022-11-25T01:16:30;2.80;;;1.95;;
57778;SDS011;43608;49.486;9.640;2022-11-25T01:17:01;3.10;;;2.03;;
57778;SDS011;43608;49.486;9.640;2022-11-25T01:17:31;3.45;;;2.30;;
57778;SDS011;43608;49.486;9.640;2022-11-25T01:18:02;2.78;;;1.90;;
57778;SDS011;43608;49.486;9.640;2022-11-25T01:18:32;4.20;;;2.50;;
57778;SDS011;43608;49.486;9.640;2022-11-25T01:19:03;3.53;;;2.30;;
57778;SDS011;43608;49.486;9.640;2022-11-25T01:19:34;3.97;;;2.50;;
57778;SDS011;43608;49.486;9.640;2022-11-25T01:20:09;4.50;;;2.35;;
57778;SDS011;43608;49.486;9.640;2022-11-25T01:20:39;3.83;;;2.38;;
57778;SDS011;43608;49.486;9.640;2022-11-25T01:21:13;4.18;;;2.40;;
57778;SDS011;43608;49.486;9.640;2022-11-25T01:21:46;3.92;;;2.55;;
57778;SDS011;43608;49.486;9.640;2022-11-25T01:22:16;4.68;;;2.60;;
57778;SDS011;43608;49.486;9.640;2022-11-25T01:22:46;3.88;;;2.30;;
57778;SDS011;43608;49.486;9.640;2022-11-25T01:23:17;4.30;;;2.35;;
57778;SDS011;43608;49.486;9.640;2022-11-25T01:23:47;3.78;;;2.28;;
57778;SDS011;43608;49.486;9.640;2022-11-25T01:24:18;3.15;;;2.42;;
57778;SDS011;43608;49.486;9.640;2022-11-25T01:24:48;3.65;;;2.30;;
57778;SDS011;43608;49.486;9.640;2022-11-25T01:25:18;3.78;;;2.20;;
57778;SDS011;43608;49.486;9.640;2022-11-25T01:25:49;2.92;;;2.10;;
57778;SDS011;43608;49.486;9.640;2022-11-25T01:26:20;5.35;;;2.50;;
57778;SDS011;43608;49.486;9.640;2022-11-25T01:26:53;7.00;;;2.42;;
57778;SDS011;43608;49.486;9.640;2022-11-25T01:27:24;3.95;;;2.33;;
57778;SDS011;43608;49.486;9.640;2022-11-25T01:27:54;4.68;;;2.35;;
57778;SDS011;43608;49.486;9.640;2022-11-25T01:28:25;4.78;;;2.25;;
57778;SDS011;43608;49.486;9.640;2022-11-25T01:28:56;4.22;;;2.35;;
57778;SDS011;43608;49.486;9.640;2022-11-25T01:29:28;4.03;;;2.58;;
57778;SDS011;43608;49.486;9.640;2022-11-25T01:29:58;3.80;;;2.20;;
57778;SDS011;43608;49.486;9.640;2022-11-25T01:30:28;4.22;;;2.40;;
57778;SDS011;43608;49.486;9.640;2022-11-25T01:31:03;3.65;;;2.22;;
57778;SDS011;43608;49.486;9.640;2022-11-25T01:31:36;3.83;;;2.22;;
57778;SDS011;43608;49.486;9.640;2022-11-25T01:32:06;4.05;;;2.40;;
57778;SDS011;43608;49.486;9.640;2022-11-25T01:32:36;2.88;;;2.05;;
57778;SDS011;43608;49.486;9.640;2022-11-25T01:33:07;4.20;;;2.30;;
57778;SDS011;43608;49.486;9.640;2022-11-25T01:33:37;3.08;;;2.10;;
57778;SDS011;43608;49.486;9.640;2022-11-25T01:34:28;3.65;;;2.17;;
57778;SDS011;43608;49.486;9.640;2022-11-25T01:35:00;5.00;;;2.20;;
57778;SDS011;43608;49.486;9.640;2022-11-25T01:35:31;3.75;;;2.08;;
57778;SDS011;43608;49.486;9.640;2022-11-25T01:36:05;3.58;;;2.38;;
57778;SDS011;43608;49.486;9.640;2022-11-25T01:36:41;4.10;;;2.30;;
57778;SDS011;43608;49.486;9.640;2022-11-25T01:37:11;4.88;;;2.50;;
57778;SDS011;43608;49.486;9.640;2022-11-25T01:37:41;4.22;;;2.20;;
57778;SDS011;43608;49.486;9.640;2022-11-25T01:38:12;3.53;;;2.25;;
57778;SDS011;43608;49.486;9.640;2022-11-25T01:38:43;4.20;;;2.40;;
57778;SDS011;43608;49.486;9.640;2022-11-25T01:39:18;3.78;;;2.10;;
57778;SDS011;43608;49.486;9.640;2022-11-25T01:39:50;3.60;;;2.30;;
57778;SDS011;43608;49.486;9.640;2022-11-25T01:40:21;3.47;;;2.20;;
57778;SDS011;43608;49.486;9.640;2022-11-25T01:40:51;3.40;;;2.15;;
57778;SDS011;43608;49.486;9.640;2022-11-25T01:41:22;4.28;;;2.53;;
57778;SDS011;43608;49.486;9.640;2022-11-25T01:41:54;4.20;;;2.20;;
57778;SDS011;43608;49.486;9.640;2022-11-25T01:42:27;3.97;;;2.58;;
57778;SDS011;43608;49.486;9.640;2022-11-25T01:42:59;4.88;;;2.40;;
57778;SDS011;43608;49.486;9.640;2022-11-25T01:43:29;4.05;;;2.30;;
57778;SDS011;43608;49.486;9.640;2022-11-25T01:44:17;3.47;;;2.20;;
57778;SDS011;43608;49.486;9.640;2022-11-25T01:45:53;3.60;;;2.25;;
57778;SDS011;43608;49.486;9.640;2022-11-25T01:46:47;3.50;;;2.10;;
57778;SDS011;43608;49.486;9.640;2022-11-25T01:47:27;3.67;;;2.17;;
57778;SDS011;43608;49.486;9.640;2022-11-25T01:47:59;3.63;;;2.10;;
57778;SDS011;43608;49.486;9.640;2022-11-25T01:48:43;3.50;;;2.20;;
57778;SDS011;43608;49.486;9.640;2022-11-25T01:49:44;2.92;;;2.03;;
57778;SDS011;43608;49.486;9.640;2022-11-25T01:50:36;3.00;;;2.10;;
57778;SDS011;43608;49.486;9.640;2022-11-25T01:51:24;3.08;;;2.20;;
57778;SDS011;43608;49.486;9.640;2022-11-25T01:52:45;3.72;;;2.28;;
57778;SDS011;43608;49.486;9.640;2022-11-25T01:53:19;4.15;;;2.30;;
57778;SDS011;43608;49.486;9.640;2022-11-25T01:53:51;5.22;;;2.25;;
57778;SDS011;43608;49.486;9.640;2022-11-25T01:54:25;3.97;;;2.30;;
57778;SDS011;43608;49.486;9.640;2022-11-25T01:55:54;3.70;;;2.20;;
57778;SDS011;43608;49.486;9.640;2022-11-25T01:56:32;4.15;;;2.25;;
57778;SDS011;43608;49.486;9.640;2022-11-25T01:57:11;3.65;;;2.00;;
57778;SDS011;43608;49.486;9.640;2022-11-25T01:57:47;3.80;;;2.08;;
57778;SDS011;43608;49.486;9.640;2022-11-25T01:58:27;4.65;;;2.50;;
57778;SDS011;43608;49.486;9.640;2022-11-25T01:59:04;4.85;;;2.40;;
57778;SDS011;43608;49.486;9.640;2022-11-25T01:59:36;3.75;;;2.20;;
57778;SDS011;43608;49.486;9.640;2022-11-25T02:00:10;4.05;;;2.28;;
57778;SDS011;43608;49.486;9.640;2022-11-25T02:00:41;2.97;;;2.20;;
57778;SDS011;43608;49.486;9.640;2022-11-25T02:01:20;3.65;;;2.10;;
57778;SDS011;43608;49.486;9.640;2022-11-25T02:01:51;3.50;;;2.25;;
57778;SDS011;43608;49.486;9.640;2022-11-25T02:02:21;4.82;;;2.70;;
57778;SDS011;43608;49.486;9.640;2022-11-25T02:02:53;3.75;;;2.28;;
57778;SDS011;43608;49.486;9.640;2022-11-25T02:03:26;4.22;;;2.17;;
57778;SDS011;43608;49.486;9.640;2022-11-25T02:04:01;3.70;;;2.15;;
57778;SDS011;43608;49.486;9.640;2022-11-25T02:04:33;3.28;;;2.10;;
57778;SDS011;43608;49.486;9.640;2022-11-25T02:05:07;3.92;;;2.10;;
57778;SDS011;43608;49.486;9.640;2022-11-25T02:05:53;3.78;;;2.22;;
57778;SDS011;43608;49.486;9.640;2022-11-25T02:06:35;3.03;;;2.00;;
57778;SDS011;43608;49.486;9.640;2022-11-25T02:07:18;4.20;;;2.38;;
57778;SDS011;43608;49.486;9.640;2022-11-25T02:07:55;3.83;;;2.30;;
57778;SDS011;43608;49.486;9.640;2022-11-25T02:08:26;3.35;;;2.00;;
57778;SDS011;43608;49.486;9.640;2022-11-25T02:09:00;3.53;;;2.10;;
57778;SDS011;43608;49.486;9.640;2022-11-25T02:09:33;3.95;;;2.03;;
57778;SDS011;43608;49.486;9.640;2022-11-25T02:10:12;2.75;;;2.05;;
57778;SDS011;43608;49.486;9.640;2022-11-25T02:10:47;3.33;;;1.85;;
57778;SDS011;43608;49.486;9.640;2022-11-25T02:11:17;4.03;;;2.20;;
57778;SDS011;43608;49.486;9.640;2022-11-25T02:11:49;4.72;;;2.35;;
57778;SDS011;43608;49.486;9.640;2022-11-25T02:12:21;4.03;;;2.30;;
57778;SDS011;43608;49.486;9.640;2022-11-25T02:12:51;3.45;;;2.10;;
57778;SDS011;43608;49.486;9.640;2022-11-25T02:13:22;3.17;;;2.05;;
57778;SDS011;43608;49.486;9.640;2022-11-25T02:13:53;4.50;;;2.35;;
57778;SDS011;43608;49.486;9.640;2022-11-25T02:14:24;4.13;;;2.33;;
57778;SDS011;43608;49.486;9.640;2022-11-25T02:14:56;3.00;;;1.80;;
57778;SDS011;43608;49.486;9.640;2022-11-25T02:15:28;3.67;;;2.15;;
57778;SDS011;43608;49.486;9.640;2022-11-25T02:16:00;3.47;;;1.98;;
57778;SDS011;43608;49.486;9.640;2022-11-25T02:16:30;4.05;;;2.25;;
57778;SDS011;43608;49.486;9.640;2022-11-25T02:17:01;3.50;;;2.08;;
57778;SDS011;43608;49.486;9.640;2022-11-25T02:17:32;4.93;;;2.38;;
57778;SDS011;43608;49.486;9.640;2022-11-25T02:18:03;2.90;;;2.00;;
57778;SDS011;43608;49.486;9.640;2022-11-25T02:18:33;3.10;;;2.05;;
57778;SDS011;43608;49.486;9.640;2022-11-25T02:19:05;3.58;;;2.13;;
57778;SDS011;43608;49.486;9.640;2022-11-25T02:19:47;5.38;;;2.20;;
57778;SDS011;43608;49.486;9.640;2022-11-25T02:20:29;3.10;;;1.73;;
57778;SDS011;43608;49.486;9.640;2022-11-25T02:20:59;4.18;;;2.00;;
57778;SDS011;43608;49.486;9.640;2022-11-25T02:21:30;3.00;;;2.00;;
57778;SDS011;43608;49.486;9.640;2022-11-25T02:22:06;3.88;;;2.10;;
57778;SDS011;43608;49.486;9.640;2022-11-25T02:24:17;3.22;;;1.85;;
57778;SDS011;43608;49.486;9.640;2022-11-25T02:24:55;3.03;;;2.17;;
57778;SDS011;43608;49.486;9.640;2022-11-25T02:25:36;3.17;;;1.85;;
57778;SDS011;43608;49.486;9.640;2022-11-25T02:26:07;3.03;;;1.88;;
57778;SDS011;43608;49.486;9.640;2022-11-25T02:26:38;3.85;;;1.90;;
57778;SDS011;43608;49.486;9.640;2022-11-25T02:27:08;4.28;;;2.03;;
57778;SDS011;43608;49.486;9.640;2022-11-25T02:27:39;3.75;;;2.10;;
57778;SDS011;43608;49.486;9.640;2022-11-25T02:28:19;3.17;;;1.90;;
57778;SDS011;43608;49.486;9.640;2022-11-25T02:28:51;2.50;;;2.00;;
57778;SDS011;43608;49.486;9.640;2022-11-25T02:29:22;3.55;;;2.15;;
57778;SDS011;43608;49.486;9.640;2022-11-25T02:29:52;3.33;;;1.92;;
57778;SDS011;43608;49.486;9.640;2022-11-25T02:30:23;2.47;;;1.70;;
57778;SDS011;43608;49.486;9.640;2022-11-25T02:30:53;2.58;;;1.77;;
57778;SDS011;43608;49.486;9.640;2022-11-25T02:31:24;3.78;;;2.00;;
57778;SDS011;43608;49.486;9.640;2022-11-25T02:31:54;3.95;;;2.00;;
57778;SDS011;43608;49.486;9.640;2022-11-25T02:32:24;2.70;;;1.83;;
57778;SDS011;43608;49.486;9.640;2022-11-25T02:32:56;2.45;;;1.77;;
57778;SDS011;43608;49.486;9.640;2022-11-25T02:33:27;2.83;;;1.95;;
57778;SDS011;43608;49.486;9.640;2022-11-25T02:33:58;2.65;;;1.88;;
57778;SDS011;43608;49.486;9.640;2022-11-25T02:34:28;3.33;;;1.92;;
57778;SDS011;43608;49.486;9.640;2022-11-25T02:34:58;3.10;;;1.90;;
57778;SDS011;43608;49.486;9.640;2022-11-25T02:35:36;3.03;;;1.90;;
57778;SDS011;43608;49.486;9.640;2022-11-25T02:36:09;2.90;;;1.80;;
57778;SDS011;43608;49.486;9.640;2022-11-25T02:36:44;3.55;;;2.00;;
57778;SDS011;43608;49.486;9.640;2022-11-25T02:37:14;2.88;;;1.95;;
57778;SDS011;43608;49.486;9.640;2022-11-25T02:37:47;2.42;;;1.88;;
57778;SDS011;43608;49.486;9.640;2022-11-25T02:38:22;2.80;;;2.03;;
57778;SDS011;43608;49.486;9.640;2022-11-25T02:38:58;3.38;;;1.98;;
57778;SDS011;43608;49.486;9.640;2022-11-25T02:39:30;3.05;;;2.00;;
57778;SDS011;43608;49.486;9.640;2022-11-25T02:40:00;2.78;;;1.92;;
57778;SDS011;43608;49.486;9.640;2022-11-25T02:40:33;2.55;;;1.90;;
57778;SDS011;43608;49.486;9.640;2022-11-25T02:41:11;3.15;;;1.98;;
57778;SDS011;43608;49.486;9.640;2022-11-25T02:41:49;2.53;;;1.90;;
57778;SDS011;43608;49.486;9.640;2022-11-25T02:42:23;3.72;;;2.10;;
57778;SDS011;43608;49.486;9.640;2022-11-25T02:42:58;2.47;;;1.90;;
57778;SDS011;43608;49.486;9.640;2022-11-25T02:43:29;2.80;;;1.90;;
57778;SDS011;43608;49.486;9.640;2022-11-25T02:44:00;3.47;;;2.00;;
57778;SDS011;43608;49.486;9.640;2022-11-25T02:44:30;2.92;;;2.00;;
57778;SDS011;43608;49.486;9.640;2022-11-25T02:45:01;4.97;;;1.98;;
57778;SDS011;43608;49.486;9.640;2022-11-25T02:45:34;3.13;;;2.05;;
57778;SDS011;43608;49.486;9.640;2022-11-25T02:46:11;3.58;;;2.10;;
57778;SDS011;43608;49.486;9.640;2022-11-25T02:46:43;3.97;;;2.17;;
57778;SDS011;43608;49.486;9.640;2022-11-25T02:47:13;2.50;;;1.80;;
57778;SDS011;43608;49.486;9.640;2022-11-25T02:47:43;3.58;;;2.15;;
57778;SDS011;43608;49.486;9.640;2022-11-25T02:48:14;3.63;;;2.08;;
57778;SDS011;43608;49.486;9.640;2022-11-25T02:48:44;2.70;;;1.70;;
57778;SDS011;43608;49.486;9.640;2022-11-25T02:49:15;3.40;;;2.08;;
57778;SDS011;43608;49.486;9.640;2022-11-25T02:49:45;3.10;;;1.95;;
57778;SDS011;43608;49.486;9.640;2022-11-25T02:50:16;3.38;;;1.90;;
57778;SDS011;43608;49.486;9.640;2022-11-25T02:50:46;4.40;;;2.08;;
57778;SDS011;43608;49.486;9.640;2022-11-25T02:51:18;3.42;;;2.00;;
57778;SDS011;43608;49.486;9.640;2022-11-25T02:51:50;3.00;;;2.00;;
57778;SDS011;43608;49.486;9.640;2022-11-25T02:52:20;3.47;;;2.00;;
57778;SDS011;43608;49.486;9.640;2022-11-25T02:52:51;2.60;;;2.00;;
57778;SDS011;43608;49.486;9.640;2022-11-25T02:53:21;3.22;;;2.20;;
57778;SDS011;43608;49.486;9.640;2022-11-25T02:53:52;3.47;;;2.20;;
57778;SDS011;43608;49.486;9.640;2022-11-25T02:54:23;4.47;;;2.20;;
57778;SDS011;43608;49.486;9.640;2022-11-25T02:54:53;2.90;;;2.05;;
57778;SDS011;43608;49.486;9.640;2022-11-25T02:55:24;3.75;;;1.90;;
57778;SDS011;43608;49.486;9.640;2022-11-25T02:55:54;3.78;;;2.00;;
57778;SDS011;43608;49.486;9.640;2022-11-25T02:56:26;2.75;;;2.10;;
57778;SDS011;43608;49.486;9.640;2022-11-25T02:56:59;3.05;;;2.10;;
57778;SDS011;43608;49.486;9.640;2022-11-25T02:57:29;2.40;;;1.90;;
57778;SDS011;43608;49.486;9.640;2022-11-25T02:58:00;3.00;;;2.20;;
57778;SDS011;43608;49.486;9.640;2022-11-25T02:58:30;3.85;;;2.30;;
57778;SDS011;43608;49.486;9.640;2022-11-25T02:59:01;3.15;;;2.15;;
57778;SDS011;43608;49.486;9.640;2022-11-25T02:59:31;4.22;;;2.33;;
57778;SDS011;43608;49.486;9.640;2022-11-25T03:00:02;4.28;;;2.22;;
57778;SDS011;43608;49.486;9.640;2022-11-25T03:00:34;2.85;;;2.10;;
57778;SDS011;43608;49.486;9.640;2022-11-25T03:01:04;3.03;;;2.10;;
57778;SDS011;43608;49.486;9.640;2022-11-25T03:01:35;3.90;;;2.30;;
57778;SDS011;43608;49.486;9.640;2022-11-25T03:02:07;3.08;;;2.00;;
57778;SDS011;43608;49.486;9.640;2022-11-25T03:02:37;3.50;;;2.30;;
57778;SDS011;43608;49.486;9.640;2022-11-25T03:03:08;3.08;;;2.17;;
57778;SDS011;43608;49.486;9.640;2022-11-25T03:03:39;3.88;;;2.28;;
57778;SDS011;43608;49.486;9.640;2022-11-25T03:04:09;3.33;;;2.38;;
57778;SDS011;43608;49.486;9.640;2022-11-25T03:04:40;2.63;;;2.05;;
57778;SDS011;43608;49.486;9.640;2022-11-25T03:05:11;3.25;;;2.30;;
57778;SDS011;43608;49.486;9.640;2022-11-25T03:05:42;3.85;;;2.13;;
57778;SDS011;43608;49.486;9.640;2022-11-25T03:06:12;3.38;;;2.08;;
57778;SDS011;43608;49.486;9.640;2022-11-25T03:06:43;4.63;;;2.40;;
57778;SDS011;43608;49.486;9.640;2022-11-25T03:07:13;4.22;;;2.38;;
57778;SDS011;43608;49.486;9.640;2022-11-25T03:07:43;3.28;;;2.15;;
57778;SDS011;43608;49.486;9.640;2022-11-25T03:08:14;2.95;;;2.08;;
57778;SDS011;43608;49.486;9.640;2022-11-25T03:08:45;3.80;;;2.15;;
57778;SDS011;43608;49.486;9.640;2022-11-25T03:09:15;2.20;;;1.80;;
57778;SDS011;43608;49.486;9.640;2022-11-25T03:09:45;2.85;;;2.10;;
57778;SDS011;43608;49.486;9.640;2022-11-25T03:10:16;3.85;;;2.30;;
57778;SDS011;43608;49.486;9.640;2022-11-25T03:10:47;3.58;;;2.20;;
57778;SDS011;43608;49.486;9.640;2022-11-25T03:11:18;3.63;;;2.33;;
57778;SDS011;43608;49.486;9.640;2022-11-25T03:11:48;2.25;;;1.95;;
57778;SDS011;43608;49.486;9.640;2022-11-25T03:12:37;3.33;;;2.30;;
57778;SDS011;43608;49.486;9.640;2022-11-25T03:13:08;3.42;;;2.08;;
57778;SDS011;43608;49.486;9.640;2022-11-25T03:13:38;3.05;;;2.08;;
57778;SDS011;43608;49.486;9.640;2022-11-25T03:14:09;4.05;;;2.13;;
57778;SDS011;43608;49.486;9.640;2022-11-25T03:14:39;3.22;;;2.20;;
57778;SDS011;43608;49.486;9.640;2022-11-25T03:15:09;2.72;;;2.00;;
57778;SDS011;43608;49.486;9.640;2022-11-25T03:15:40;3.22;;;2.10;;
57778;SDS011;43608;49.486;9.640;2022-11-25T03:16:10;3.17;;;2.08;;
57778;SDS011;43608;49.486;9.640;2022-11-25T03:16:41;3.75;;;2.22;;
57778;SDS011;43608;49.486;9.640;2022-11-25T03:17:12;3.63;;;2.05;;
57778;SDS011;43608;49.486;9.640;2022-11-25T03:17:43;3.60;;;2.03;;
57778;SDS011;43608;49.486;9.640;2022-11-25T03:18:14;2.97;;;1.88;;
57778;SDS011;43608;49.486;9.640;2022-11-25T03:18:44;2.90;;;1.80;;
57778;SDS011;43608;49.486;9.640;2022-11-25T03:19:14;2.72;;;2.00;;
57778;SDS011;43608;49.486;9.640;2022-11-25T03:19:44;3.15;;;1.98;;
57778;SDS011;43608;49.486;9.640;2022-11-25T03:20:15;3.08;;;2.00;;